createdAt,value
2023-02-16T00:00:04.679Z,90.66
2023-02-16T00:01:05.181Z,89.01
2023-02-16T00:02:04.713Z,88.39
2023-02-16T00:03:04.700Z,89.52
2023-02-16T00:04:04.646Z,88.84
2023-02-16T00:05:04.646Z,88.32
2023-02-16T00:06:04.645Z,88.74
2023-02-16T00:07:04.628Z,88.22
2023-02-16T00:08:04.597Z,88.74
2023-02-16T00:09:04.600Z,89.25
2023-02-16T00:10:04.590Z,89.61
2023-02-16T00:11:04.845Z,90.33
2023-02-16T00:12:04.553Z,90.64
2023-02-16T00:13:04.573Z,90.74
2023-02-16T00:14:04.526Z,89.71
2023-02-16T00:15:04.556Z,89.09
2023-02-16T00:16:04.613Z,89.61
2023-02-16T00:17:04.514Z,89.92
2023-02-16T00:18:04.540Z,90.23
2023-02-16T00:19:04.484Z,90.84
2023-02-16T00:20:04.555Z,89.75
2023-02-16T00:21:04.887Z,90.47
2023-02-16T00:22:04.503Z,90.78
2023-02-16T00:23:04.470Z,92.13
2023-02-16T00:24:04.462Z,91.09
2023-02-16T00:25:04.452Z,90.26
2023-02-16T00:26:04.411Z,89.96
2023-02-16T00:27:04.434Z,90.99
2023-02-16T00:28:04.428Z,91.30
2023-02-16T00:29:04.388Z,90.99
2023-02-16T00:30:04.487Z,89.44
2023-02-16T00:31:04.716Z,90.78
2023-02-16T00:32:04.632Z,90.99
2023-02-16T00:33:04.385Z,90.99
2023-02-16T00:34:04.338Z,91.30
2023-02-16T00:35:04.336Z,91.82
2023-02-16T00:36:04.341Z,90.37
2023-02-16T00:37:04.423Z,92.34
2023-02-16T00:38:04.292Z,91.09
2023-02-16T00:39:04.295Z,90.58
2023-02-16T00:40:04.272Z,89.79
2023-02-16T00:41:04.516Z,89.69
2023-02-16T00:42:04.289Z,90.10
2023-02-16T00:43:04.261Z,90.00
2023-02-16T00:44:04.257Z,90.10
2023-02-16T00:45:04.260Z,90.93
2023-02-16T00:46:11.796Z,92.59
2023-02-16T00:47:04.221Z,91.35
2023-02-16T00:48:04.232Z,90.62
2023-02-16T00:49:04.819Z,91.24
2023-02-16T00:50:04.195Z,91.76
2023-02-16T00:51:16.881Z,92.18
2023-02-16T00:52:04.190Z,91.35
2023-02-16T00:53:04.150Z,91.55
2023-02-16T00:54:04.166Z,91.03
2023-02-16T00:55:04.143Z,90.41
2023-02-16T00:56:04.130Z,90.10
2023-02-16T00:57:04.140Z,91.76
2023-02-16T00:58:04.127Z,94.04
2023-02-16T00:59:04.113Z,92.28
2023-02-16T01:00:04.103Z,91.35
2023-02-16T01:01:04.378Z,90.62
2023-02-16T01:02:04.069Z,89.58
2023-02-16T01:03:04.091Z,89.17
2023-02-16T01:04:04.061Z,90.10
2023-02-16T01:05:04.038Z,90.41
2023-02-16T01:06:04.011Z,91.03
2023-02-16T01:07:04.023Z,91.24
2023-02-16T01:08:04.034Z,91.35
2023-02-16T01:09:03.986Z,91.86
2023-02-16T01:10:04.002Z,91.97
2023-02-16T01:11:04.445Z,91.45
2023-02-16T01:12:04.055Z,91.14
2023-02-16T01:13:03.963Z,90.72
2023-02-16T01:14:03.953Z,91.08
2023-02-16T01:15:03.937Z,90.66
2023-02-16T01:16:04.008Z,90.45
2023-02-16T01:17:03.924Z,90.56
2023-02-16T01:18:03.906Z,91.49
2023-02-16T01:19:03.896Z,90.35
2023-02-16T01:20:03.872Z,91.08
2023-02-16T01:21:04.119Z,92.53
2023-02-16T01:22:03.900Z,92.84
2023-02-16T01:23:03.852Z,93.52
2023-02-16T01:24:03.848Z,91.86
2023-02-16T01:25:03.849Z,91.35
2023-02-16T01:26:03.839Z,91.03
2023-02-16T01:27:03.854Z,90.62
2023-02-16T01:28:03.823Z,91.03
2023-02-16T01:29:03.796Z,91.24
2023-02-16T01:30:03.816Z,89.89
2023-02-16T01:31:04.151Z,91.66
2023-02-16T01:32:03.987Z,91.03
2023-02-16T01:33:03.753Z,90.83
2023-02-16T01:34:03.768Z,91.66
2023-02-16T01:35:03.742Z,90.52
2023-02-16T01:36:03.745Z,90.41
2023-02-16T01:37:03.717Z,91.14
2023-02-16T01:38:03.721Z,91.35
2023-02-16T01:39:03.704Z,91.24
2023-02-16T01:40:03.684Z,91.35
2023-02-16T01:41:03.966Z,91.03
2023-02-16T01:42:03.679Z,91.24
2023-02-16T01:43:03.649Z,90.10
2023-02-16T01:44:03.652Z,89.28
2023-02-16T01:45:03.624Z,90.14
2023-02-16T01:46:03.701Z,90.04
2023-02-16T01:47:03.617Z,91.80
2023-02-16T01:48:03.607Z,91.08
2023-02-16T01:49:03.602Z,91.80
2023-02-16T01:50:03.833Z,90.97
2023-02-16T01:51:03.897Z,91.60
2023-02-16T01:52:03.562Z,91.70
2023-02-16T01:53:03.549Z,92.11
2023-02-16T01:54:03.566Z,92.11
2023-02-16T01:55:03.526Z,92.32
2023-02-16T01:56:03.539Z,93.35
2023-02-16T01:57:03.514Z,92.11
2023-02-16T01:58:03.506Z,92.16
2023-02-16T01:59:03.502Z,90.70
2023-02-16T02:00:03.487Z,90.50
2023-02-16T02:01:03.720Z,93.08
2023-02-16T02:02:03.527Z,92.47
2023-02-16T02:03:03.451Z,91.43
2023-02-16T02:04:03.452Z,93.50
2023-02-16T02:05:03.458Z,93.56
2023-02-16T02:06:03.428Z,92.88
2023-02-16T02:07:03.417Z,92.36
2023-02-16T02:08:03.437Z,91.22
2023-02-16T02:09:03.389Z,90.81
2023-02-16T02:10:03.416Z,91.43
2023-02-16T02:11:03.755Z,91.85
2023-02-16T02:12:03.373Z,92.05
2023-02-16T02:13:03.388Z,92.16
2023-02-16T02:14:03.349Z,92.88
2023-02-16T02:15:03.362Z,92.88
2023-02-16T02:16:03.403Z,91.33
2023-02-16T02:17:03.311Z,92.78
2023-02-16T02:18:03.317Z,92.36
2023-02-16T02:19:03.300Z,91.74
2023-02-16T02:20:03.310Z,91.58
2023-02-16T02:21:03.576Z,91.47
2023-02-16T02:22:03.273Z,91.37
2023-02-16T02:23:03.294Z,91.16
2023-02-16T02:24:03.256Z,91.89
2023-02-16T02:25:03.229Z,91.85
2023-02-16T02:26:03.237Z,91.64
2023-02-16T02:27:03.213Z,92.36
2023-02-16T02:28:03.235Z,91.95
2023-02-16T02:29:03.210Z,92.26
2023-02-16T02:30:03.238Z,92.36
2023-02-16T02:31:03.733Z,92.16
2023-02-16T02:32:03.289Z,91.33
2023-02-16T02:33:03.146Z,91.53
2023-02-16T02:34:03.176Z,92.05
2023-02-16T02:35:03.145Z,91.95
2023-02-16T02:36:03.125Z,91.22
2023-02-16T02:37:03.155Z,91.02
2023-02-16T02:38:03.118Z,91.53
2023-02-16T02:39:03.113Z,90.95
2023-02-16T02:40:03.093Z,91.47
2023-02-16T02:41:03.454Z,91.58
2023-02-16T02:42:03.081Z,92.78
2023-02-16T02:43:03.055Z,93.71
2023-02-16T02:44:03.055Z,93.40
2023-02-16T02:45:03.056Z,93.29
2023-02-16T02:46:03.054Z,91.53
2023-02-16T02:47:03.007Z,91.43
2023-02-16T02:48:03.004Z,91.68
2023-02-16T02:49:03.231Z,90.85
2023-02-16T02:50:03.011Z,91.58
2023-02-16T02:51:03.390Z,92.10
2023-02-16T02:52:02.964Z,91.78
2023-02-16T02:53:02.951Z,93.23
2023-02-16T02:54:02.976Z,92.82
2023-02-16T02:55:02.936Z,92.30
2023-02-16T02:56:02.941Z,92.61
2023-02-16T02:57:02.904Z,93.02
2023-02-16T02:58:02.921Z,93.13
2023-02-16T02:59:02.899Z,94.58
2023-02-16T03:00:02.918Z,93.02
2023-02-16T03:01:03.202Z,91.78
2023-02-16T03:02:03.011Z,92.51
2023-02-16T03:03:02.864Z,91.99
2023-02-16T03:04:02.867Z,91.68
2023-02-16T03:05:02.822Z,91.89
2023-02-16T03:06:02.846Z,92.20
2023-02-16T03:07:02.828Z,92.72
2023-02-16T03:08:02.823Z,92.72
2023-02-16T03:09:02.787Z,93.23
2023-02-16T03:10:02.836Z,94.06
2023-02-16T03:11:03.149Z,93.54
2023-02-16T03:12:02.761Z,92.24
2023-02-16T03:13:02.762Z,91.83
2023-02-16T03:14:02.748Z,92.86
2023-02-16T03:15:02.722Z,93.49
2023-02-16T03:16:03.250Z,93.02
2023-02-16T03:17:16.417Z,92.45
2023-02-16T03:18:02.775Z,93.33
2023-02-16T03:19:02.884Z,92.72
2023-02-16T03:20:02.702Z,92.03
2023-02-16T03:21:02.984Z,92.93
2023-02-16T03:22:02.696Z,93.02
2023-02-16T03:23:02.644Z,93.44
2023-02-16T03:24:02.647Z,93.02
2023-02-16T03:25:02.622Z,92.72
2023-02-16T03:26:02.623Z,92.26
2023-02-16T03:27:02.600Z,92.88
2023-02-16T03:28:02.604Z,92.16
2023-02-16T03:29:02.596Z,91.22
2023-02-16T03:30:02.636Z,91.22
2023-02-16T03:31:03.018Z,91.12
2023-02-16T03:32:02.706Z,92.16
2023-02-16T03:33:02.547Z,91.64
2023-02-16T03:34:02.539Z,91.64
2023-02-16T03:35:02.508Z,90.81
2023-02-16T03:36:02.526Z,90.91
2023-02-16T03:37:02.493Z,90.81
2023-02-16T03:38:02.507Z,91.95
2023-02-16T03:39:02.482Z,92.78
2023-02-16T03:40:02.476Z,91.85
2023-02-16T03:41:02.741Z,92.05
2023-02-16T03:42:02.472Z,91.64
2023-02-16T03:43:02.441Z,90.70
2023-02-16T03:44:02.452Z,90.70
2023-02-16T03:45:02.414Z,90.29
2023-02-16T03:46:02.474Z,91.27
2023-02-16T03:47:02.397Z,91.68
2023-02-16T03:48:02.402Z,91.89
2023-02-16T03:49:02.388Z,92.20
2023-02-16T03:50:02.404Z,91.16
2023-02-16T03:51:02.594Z,92.93
2023-02-16T03:52:02.356Z,93.54
2023-02-16T03:53:02.347Z,92.51
2023-02-16T03:54:02.338Z,91.78
2023-02-16T03:55:02.332Z,91.89
2023-02-16T03:56:02.342Z,91.78
2023-02-16T03:57:02.305Z,90.85
2023-02-16T03:58:02.298Z,91.16
2023-02-16T03:59:02.273Z,91.47
2023-02-16T04:00:02.320Z,92.41
2023-02-16T04:01:02.766Z,92.10
2023-02-16T04:02:02.287Z,92.41
2023-02-16T04:03:02.240Z,92.35
2023-02-16T04:04:02.246Z,92.82
2023-02-16T04:05:02.218Z,92.24
2023-02-16T04:06:02.215Z,92.55
2023-02-16T04:07:02.202Z,92.14
2023-02-16T04:08:02.195Z,91.41
2023-02-16T04:09:02.184Z,92.03
2023-02-16T04:10:02.187Z,92.24
2023-02-16T04:11:02.548Z,92.86
2023-02-16T04:12:02.172Z,93.07
2023-02-16T04:13:02.167Z,91.62
2023-02-16T04:14:02.140Z,91.52
2023-02-16T04:15:02.123Z,92.72
2023-02-16T04:16:02.111Z,92.30
2023-02-16T04:17:02.091Z,92.41
2023-02-16T04:18:02.135Z,92.10
2023-02-16T04:19:02.094Z,90.85
2023-02-16T04:20:02.071Z,91.06
2023-02-16T04:21:02.521Z,91.06
2023-02-16T04:22:02.045Z,91.89
2023-02-16T04:23:02.050Z,91.27
2023-02-16T04:24:02.071Z,91.78
2023-02-16T04:25:02.013Z,91.78
2023-02-16T04:26:02.039Z,91.89
2023-02-16T04:27:02.004Z,90.64
2023-02-16T04:28:01.998Z,90.75
2023-02-16T04:29:02.001Z,90.95
2023-02-16T04:30:02.112Z,91.89
2023-02-16T04:31:02.420Z,93.13
2023-02-16T04:32:02.145Z,91.58
2023-02-16T04:33:01.965Z,91.27
2023-02-16T04:34:01.928Z,90.95
2023-02-16T04:35:01.906Z,90.44
2023-02-16T04:36:01.929Z,89.92
2023-02-16T04:37:01.893Z,90.33
2023-02-16T04:38:01.888Z,89.92
2023-02-16T04:39:01.910Z,91.16
2023-02-16T04:40:01.872Z,90.44
2023-02-16T04:41:12.917Z,91.47
2023-02-16T04:42:01.863Z,92.10
2023-02-16T04:43:01.820Z,92.51
2023-02-16T04:44:01.857Z,92.51
2023-02-16T04:45:01.832Z,91.27
2023-02-16T04:46:01.900Z,90.95
2023-02-16T04:47:01.789Z,91.58
2023-02-16T04:48:01.803Z,90.33
2023-02-16T04:49:01.790Z,90.64
2023-02-16T04:50:01.764Z,91.78
2023-02-16T04:51:02.060Z,92.30
2023-02-16T04:52:01.753Z,91.37
2023-02-16T04:53:01.727Z,91.16
2023-02-16T04:54:01.734Z,90.64
2023-02-16T04:55:01.735Z,91.58
2023-02-16T04:56:01.768Z,91.27
2023-02-16T04:57:02.802Z,92.10
2023-02-16T04:58:01.678Z,90.75
2023-02-16T04:59:01.693Z,91.37
2023-02-16T05:00:01.670Z,91.58
2023-02-16T05:01:01.822Z,91.16
2023-02-16T05:02:02.401Z,90.75
2023-02-16T05:03:01.646Z,90.64
2023-02-16T05:04:01.953Z,89.92
2023-02-16T05:05:01.646Z,89.92
2023-02-16T05:06:01.593Z,90.23
2023-02-16T05:07:01.582Z,90.23
2023-02-16T05:08:01.590Z,89.61
2023-02-16T05:09:01.559Z,89.61
2023-02-16T05:10:01.580Z,91.58
2023-02-16T05:11:01.794Z,91.58
2023-02-16T05:12:01.744Z,91.06
2023-02-16T05:13:01.525Z,90.54
2023-02-16T05:14:01.506Z,91.89
2023-02-16T05:15:01.738Z,91.58
2023-02-16T05:16:01.585Z,90.75
2023-02-16T05:17:01.547Z,91.99
2023-02-16T05:18:01.475Z,91.06
2023-02-16T05:19:01.484Z,90.91
2023-02-16T05:20:01.502Z,92.57
2023-02-16T05:21:01.745Z,91.22
2023-02-16T05:22:01.438Z,90.70
2023-02-16T05:23:01.414Z,89.46
2023-02-16T05:24:01.440Z,89.36
2023-02-16T05:25:01.397Z,90.64
2023-02-16T05:26:01.396Z,89.71
2023-02-16T05:27:01.393Z,90.29
2023-02-16T05:28:01.492Z,91.33
2023-02-16T05:29:01.423Z,90.29
2023-02-16T05:30:01.394Z,89.46
2023-02-16T05:31:01.438Z,89.77
2023-02-16T05:32:04.241Z,89.15
2023-02-16T05:33:01.314Z,89.15
2023-02-16T05:34:01.325Z,89.25
2023-02-16T05:35:01.304Z,89.67
2023-02-16T05:36:01.308Z,89.56
2023-02-16T05:37:01.325Z,90.81
2023-02-16T05:38:01.275Z,89.56
2023-02-16T05:39:01.257Z,91.33
2023-02-16T05:40:01.270Z,91.74
2023-02-16T05:41:01.464Z,89.67
2023-02-16T05:42:01.238Z,90.39
2023-02-16T05:43:01.238Z,91.64
2023-02-16T05:44:01.223Z,92.88
2023-02-16T05:45:01.209Z,91.49
2023-02-16T05:46:01.289Z,89.11
2023-02-16T05:47:01.207Z,88.63
2023-02-16T05:48:01.171Z,89.11
2023-02-16T05:49:01.169Z,89.15
2023-02-16T05:50:01.156Z,88.73
2023-02-16T05:51:01.505Z,89.56
2023-02-16T05:52:01.172Z,89.04
2023-02-16T05:53:01.124Z,89.67
2023-02-16T05:54:01.129Z,89.56
2023-02-16T05:55:01.112Z,89.46
2023-02-16T05:56:01.100Z,91.12
2023-02-16T05:57:01.107Z,89.87
2023-02-16T05:58:01.076Z,89.67
2023-02-16T05:59:01.072Z,91.39
2023-02-16T06:00:01.066Z,91.28
2023-02-16T06:01:02.309Z,90.97
2023-02-16T06:02:02.352Z,90.87
2023-02-16T06:03:01.125Z,90.45
2023-02-16T06:04:01.338Z,90.25
2023-02-16T06:05:01.052Z,88.69
2023-02-16T06:06:01.028Z,88.79
2023-02-16T06:07:01.019Z,89.79
2023-02-16T06:08:00.985Z,90.10
2023-02-16T06:09:00.970Z,89.17
2023-02-16T06:10:00.962Z,89.38
2023-02-16T06:11:00.952Z,88.76
2023-02-16T06:12:00.935Z,90.00
2023-02-16T06:14:11.802Z,89.28
2023-02-16T06:15:12.782Z,90.10
2023-02-16T06:16:12.865Z,89.28
2023-02-16T06:17:12.726Z,89.28
2023-02-16T06:18:12.759Z,90.00
2023-02-16T06:19:12.700Z,88.92
2023-02-16T06:20:12.684Z,89.34
2023-02-16T06:21:12.733Z,88.24
2023-02-16T06:22:12.694Z,88.30
2023-02-16T06:23:12.780Z,88.92
2023-02-16T06:24:12.646Z,88.82
2023-02-16T06:25:12.648Z,88.20
2023-02-16T06:26:12.614Z,90.06
2023-02-16T06:27:12.739Z,89.54
2023-02-16T06:28:12.594Z,88.92
2023-02-16T06:29:12.575Z,89.54
2023-02-16T06:30:12.643Z,88.71
2023-02-16T06:31:12.672Z,87.88
2023-02-16T06:32:12.719Z,88.30
2023-02-16T06:33:12.579Z,87.88
2023-02-16T06:34:21.539Z,87.37
2023-02-16T06:35:12.533Z,87.68
2023-02-16T06:36:12.552Z,89.13
2023-02-16T06:37:21.044Z,89.23
2023-02-16T06:38:12.500Z,88.51
2023-02-16T06:39:12.478Z,88.71
2023-02-16T06:40:12.484Z,88.40
2023-02-16T06:41:12.452Z,88.51
2023-02-16T06:42:12.451Z,88.92
2023-02-16T06:43:12.441Z,89.96
2023-02-16T06:44:13.078Z,89.96
2023-02-16T06:45:12.430Z,89.34
2023-02-16T06:46:12.457Z,87.68
2023-02-16T06:47:12.403Z,87.78
2023-02-16T06:48:12.389Z,87.47
2023-02-16T06:49:12.355Z,89.34
2023-02-16T06:50:12.424Z,89.09
2023-02-16T06:51:12.358Z,87.85
2023-02-16T06:52:12.387Z,87.74
2023-02-16T06:53:12.319Z,88.06
2023-02-16T06:54:12.325Z,88.46
2023-02-16T06:55:12.321Z,87.54
2023-02-16T06:56:12.301Z,87.12
2023-02-16T06:57:12.274Z,87.74
2023-02-16T06:58:12.294Z,87.23
2023-02-16T06:59:12.261Z,88.46
2023-02-16T07:00:12.301Z,87.64
2023-02-16T07:01:12.324Z,87.85
2023-02-16T07:02:12.248Z,87.74
2023-02-16T07:03:12.277Z,88.36
2023-02-16T07:04:12.222Z,87.74
2023-02-16T07:05:12.194Z,87.23
2023-02-16T07:06:12.231Z,87.23
2023-02-16T07:07:12.187Z,87.43
2023-02-16T07:08:12.182Z,88.67
2023-02-16T07:09:12.970Z,88.16
2023-02-16T07:10:12.238Z,88.26
2023-02-16T07:11:12.147Z,88.16
2023-02-16T07:12:12.216Z,87.85
2023-02-16T07:13:12.221Z,87.70
2023-02-16T07:14:12.149Z,88.01
2023-02-16T07:15:12.081Z,87.70
2023-02-16T07:16:12.752Z,87.60
2023-02-16T07:17:12.087Z,87.91
2023-02-16T07:18:12.091Z,87.39
2023-02-16T07:19:12.053Z,88.32
2023-02-16T07:20:12.054Z,88.22
2023-02-16T07:21:12.056Z,87.39
2023-02-16T07:22:12.025Z,87.29
2023-02-16T07:23:12.065Z,87.08
2023-02-16T07:24:12.030Z,87.39
2023-02-16T07:25:12.096Z,88.12
2023-02-16T07:26:11.984Z,87.18
2023-02-16T07:27:12.007Z,86.98
2023-02-16T07:28:12.017Z,87.60
2023-02-16T07:29:11.975Z,86.67
2023-02-16T07:30:11.961Z,86.36
2023-02-16T07:31:12.006Z,87.18
2023-02-16T07:32:12.093Z,86.15
2023-02-16T07:33:11.939Z,87.18
2023-02-16T07:34:13.026Z,86.15
2023-02-16T07:35:11.938Z,86.15
2023-02-16T07:36:11.940Z,86.46
2023-02-16T07:37:11.996Z,87.25
2023-02-16T07:38:11.862Z,86.52
2023-02-16T07:39:11.973Z,86.63
2023-02-16T07:40:11.862Z,86.32
2023-02-16T07:41:12.225Z,87.25
2023-02-16T07:42:11.844Z,87.35
2023-02-16T07:43:11.804Z,87.15
2023-02-16T07:44:11.838Z,87.04
2023-02-16T07:45:11.770Z,87.15
2023-02-16T07:46:12.136Z,87.15
2023-02-16T07:47:12.244Z,86.42
2023-02-16T07:48:11.822Z,87.35
2023-02-16T07:49:11.972Z,86.52
2023-02-16T07:50:11.729Z,86.11
2023-02-16T07:51:11.726Z,86.73
2023-02-16T07:52:11.730Z,86.79
2023-02-16T07:53:12.937Z,86.59
2023-02-16T07:54:11.725Z,86.07
2023-02-16T07:55:11.679Z,85.66
2023-02-16T07:56:11.657Z,86.38
2023-02-16T07:57:11.662Z,86.03
2023-02-16T07:58:11.666Z,86.44
2023-02-16T07:59:11.633Z,85.62
2023-02-16T08:00:11.657Z,86.03
2023-02-16T08:01:13.512Z,85.10
2023-02-16T08:02:11.657Z,84.69
2023-02-16T08:03:11.716Z,85.21
2023-02-16T08:04:11.617Z,85.72
2023-02-16T08:05:11.580Z,85.72
2023-02-16T08:06:11.582Z,85.41
2023-02-16T08:07:11.553Z,85.41
2023-02-16T08:08:11.573Z,85.10
2023-02-16T08:09:11.544Z,86.34
2023-02-16T08:10:11.527Z,85.41
2023-02-16T08:11:11.500Z,85.62
2023-02-16T08:12:11.568Z,86.34
2023-02-16T08:13:11.516Z,85.62
2023-02-16T08:14:11.508Z,84.38
2023-02-16T08:15:11.472Z,85.00
2023-02-16T08:16:11.567Z,85.10
2023-02-16T08:17:11.484Z,86.41
2023-02-16T08:18:11.437Z,87.54
2023-02-16T08:19:11.431Z,87.23
2023-02-16T08:20:11.466Z,86.20
2023-02-16T08:21:11.409Z,85.68
2023-02-16T08:22:11.411Z,86.41
2023-02-16T08:23:11.407Z,86.30
2023-02-16T08:24:11.399Z,85.68
2023-02-16T08:25:11.380Z,85.58
2023-02-16T08:26:11.440Z,85.27
2023-02-16T08:27:11.356Z,84.86
2023-02-16T08:28:11.374Z,84.96
2023-02-16T08:29:11.346Z,85.47
2023-02-16T08:30:11.366Z,85.47
2023-02-16T08:31:11.334Z,85.17
2023-02-16T08:32:11.384Z,84.75
2023-02-16T08:33:11.280Z,85.47
2023-02-16T08:34:12.133Z,85.17
2023-02-16T08:35:11.321Z,84.65
2023-02-16T08:36:11.268Z,84.96
2023-02-16T08:37:11.254Z,84.03
2023-02-16T08:38:11.265Z,85.17
2023-02-16T08:39:11.229Z,85.17
2023-02-16T08:40:11.233Z,85.17
2023-02-16T08:41:11.205Z,84.44
2023-02-16T08:42:11.202Z,84.03
2023-02-16T08:43:11.225Z,84.75
2023-02-16T08:44:11.197Z,85.17
2023-02-16T08:45:11.160Z,84.55
2023-02-16T08:46:11.204Z,85.78
2023-02-16T08:47:11.132Z,85.68
2023-02-16T08:48:11.137Z,85.58
2023-02-16T08:49:11.121Z,84.34
2023-02-16T08:50:11.216Z,84.65
2023-02-16T08:51:11.168Z,85.02
2023-02-16T08:52:11.150Z,84.09
2023-02-16T08:53:11.135Z,84.81
2023-02-16T08:54:11.074Z,83.78
2023-02-16T08:55:11.052Z,83.89
2023-02-16T08:56:11.043Z,83.68
2023-02-16T08:57:11.050Z,83.68
2023-02-16T08:58:11.028Z,82.96
2023-02-16T08:59:11.038Z,83.68
2023-02-16T09:00:11.176Z,82.55
2023-02-16T09:01:11.041Z,83.68
2023-02-16T09:02:11.015Z,83.44
2023-02-16T09:03:10.965Z,84.06
2023-02-16T09:04:10.966Z,83.85
2023-02-16T09:05:10.971Z,83.54
2023-02-16T09:06:10.977Z,83.75
2023-02-16T09:07:10.937Z,84.47
2023-02-16T09:08:11.016Z,83.95
2023-02-16T09:09:10.909Z,82.92
2023-02-16T09:10:10.897Z,83.19
2023-02-16T09:11:10.922Z,82.37
2023-02-16T09:12:10.924Z,82.37
2023-02-16T09:13:10.865Z,82.57
2023-02-16T09:14:10.978Z,83.40
2023-02-16T09:15:10.849Z,82.78
2023-02-16T09:16:10.861Z,83.19
2023-02-16T09:17:10.834Z,82.16
2023-02-16T09:18:10.850Z,81.30
2023-02-16T09:19:10.807Z,81.92
2023-02-16T09:20:10.837Z,82.23
2023-02-16T09:21:10.812Z,82.43
2023-02-16T09:22:10.802Z,82.12
2023-02-16T09:23:10.802Z,82.60
2023-02-16T09:24:10.777Z,82.19
2023-02-16T09:25:10.746Z,81.47
2023-02-16T09:26:10.730Z,80.75
2023-02-16T09:27:10.751Z,81.16
2023-02-16T09:28:10.730Z,80.75
2023-02-16T09:29:10.711Z,81.23
2023-02-16T09:30:10.785Z,81.02
2023-02-16T09:31:10.741Z,80.51
2023-02-16T09:32:10.671Z,80.91
2023-02-16T09:33:10.670Z,79.88
2023-02-16T09:34:10.670Z,80.71
2023-02-16T09:35:10.647Z,80.61
2023-02-16T09:36:10.638Z,80.09
2023-02-16T09:37:10.612Z,79.33
2023-02-16T09:38:10.639Z,79.95
2023-02-16T09:39:10.600Z,80.05
2023-02-16T09:40:10.587Z,79.75
2023-02-16T09:41:11.750Z,80.57
2023-02-16T09:42:10.557Z,79.85
2023-02-16T09:43:10.538Z,80.47
2023-02-16T09:44:10.568Z,79.64
2023-02-16T09:45:10.553Z,80.05
2023-02-16T09:46:10.741Z,79.75
2023-02-16T09:47:10.504Z,80.05
2023-02-16T09:48:10.528Z,79.23
2023-02-16T09:49:10.496Z,79.23
2023-02-16T09:50:10.551Z,79.44
2023-02-16T09:51:10.498Z,79.95
2023-02-16T09:52:10.490Z,79.54
2023-02-16T09:53:10.450Z,79.13
2023-02-16T09:54:10.432Z,79.13
2023-02-16T09:55:10.464Z,79.85
2023-02-16T09:56:11.031Z,79.23
2023-02-16T09:57:10.410Z,79.03
2023-02-16T09:58:10.394Z,79.75
2023-02-16T09:59:10.760Z,79.61
2023-02-16T10:00:10.403Z,79.91
2023-02-16T10:01:10.426Z,79.50
2023-02-16T10:02:10.374Z,79.61
2023-02-16T10:03:10.367Z,79.23
2023-02-16T10:04:10.330Z,79.33
2023-02-16T10:05:10.331Z,79.44
2023-02-16T10:06:10.316Z,79.54
2023-02-16T10:07:10.300Z,79.44
2023-02-16T10:08:10.288Z,79.54
2023-02-16T10:09:10.289Z,80.36
2023-02-16T10:10:10.267Z,80.57
2023-02-16T10:11:10.280Z,80.36
2023-02-16T10:12:10.247Z,80.57
2023-02-16T10:13:10.230Z,79.85
2023-02-16T10:14:10.237Z,79.64
2023-02-16T10:15:10.219Z,80.71
2023-02-16T10:16:10.279Z,80.30
2023-02-16T10:17:10.230Z,80.77
2023-02-16T10:18:10.250Z,80.67
2023-02-16T10:19:10.161Z,81.19
2023-02-16T10:20:10.180Z,80.77
2023-02-16T10:21:10.141Z,80.36
2023-02-16T10:22:10.155Z,80.47
2023-02-16T10:23:10.125Z,80.16
2023-02-16T10:24:10.135Z,80.47
2023-02-16T10:25:10.127Z,80.16
2023-02-16T10:26:10.106Z,80.12
2023-02-16T10:27:10.093Z,80.33
2023-02-16T10:28:10.168Z,80.02
2023-02-16T10:29:10.071Z,80.02
2023-02-16T10:30:10.099Z,79.54
2023-02-16T10:31:10.124Z,79.85
2023-02-16T10:32:10.085Z,80.16
2023-02-16T10:33:10.031Z,80.36
2023-02-16T10:34:10.060Z,80.26
2023-02-16T10:35:10.012Z,80.36
2023-02-16T10:36:10.014Z,80.88
2023-02-16T10:37:09.993Z,80.77
2023-02-16T10:38:10.009Z,80.57
2023-02-16T10:39:09.992Z,80.36
2023-02-16T10:40:09.962Z,80.77
2023-02-16T10:41:09.935Z,80.36
2023-02-16T10:42:09.961Z,80.57
2023-02-16T10:43:09.924Z,80.05
2023-02-16T10:44:09.928Z,79.95
2023-02-16T10:45:09.913Z,80.36
2023-02-16T10:46:09.958Z,80.57
2023-02-16T10:47:09.881Z,80.33
2023-02-16T10:48:09.904Z,80.02
2023-02-16T10:49:09.876Z,80.12
2023-02-16T10:50:09.880Z,80.22
2023-02-16T10:51:09.877Z,80.12
2023-02-16T10:52:09.840Z,79.81
2023-02-16T10:53:09.828Z,80.12
2023-02-16T10:54:09.840Z,79.71
2023-02-16T10:55:09.834Z,79.81
2023-02-16T10:56:09.774Z,80.22
2023-02-16T10:57:09.764Z,80.12
2023-02-16T10:58:09.800Z,79.57
2023-02-16T10:59:09.756Z,79.67
2023-02-16T11:00:09.749Z,79.77
2023-02-16T11:01:09.781Z,79.67
2023-02-16T11:02:09.720Z,79.77
2023-02-16T11:03:09.709Z,79.77
2023-02-16T11:04:09.806Z,79.36
2023-02-16T11:05:09.692Z,79.67
2023-02-16T11:06:09.685Z,79.36
2023-02-16T11:07:09.728Z,79.36
2023-02-16T11:08:09.897Z,79.67
2023-02-16T11:09:09.675Z,79.77
2023-02-16T11:10:09.653Z,79.88
2023-02-16T11:11:09.637Z,79.47
2023-02-16T11:12:09.610Z,79.67
2023-02-16T11:13:09.650Z,79.98
2023-02-16T11:14:09.951Z,79.98
2023-02-16T11:15:09.591Z,79.67
2023-02-16T11:16:09.642Z,79.57
2023-02-16T11:17:09.661Z,80.08
2023-02-16T11:18:09.587Z,80.15
2023-02-16T11:19:09.556Z,79.74
2023-02-16T11:20:09.561Z,79.94
2023-02-16T11:21:09.522Z,79.33
2023-02-16T11:22:09.526Z,79.33
2023-02-16T11:23:09.525Z,79.12
2023-02-16T11:24:09.489Z,79.47
2023-02-16T11:25:09.504Z,80.19
2023-02-16T11:26:09.514Z,80.39
2023-02-16T11:27:09.486Z,80.05
2023-02-16T11:28:09.441Z,80.15
2023-02-16T11:29:09.464Z,80.05
2023-02-16T11:30:09.487Z,80.15
2023-02-16T11:31:09.541Z,80.46
2023-02-16T11:32:09.587Z,80.77
2023-02-16T11:33:09.410Z,80.66
2023-02-16T11:34:09.411Z,80.66
2023-02-16T11:35:09.395Z,80.66
2023-02-16T11:36:09.558Z,80.87
2023-02-16T11:37:09.386Z,80.63
2023-02-16T11:38:09.343Z,80.56
2023-02-16T11:39:11.111Z,80.56
2023-02-16T11:40:09.367Z,80.87
2023-02-16T11:41:09.311Z,81.04
2023-02-16T11:42:09.332Z,81.14
2023-02-16T11:43:09.297Z,81.14
2023-02-16T11:44:09.341Z,81.34
2023-02-16T11:45:09.310Z,81.24
2023-02-16T11:46:09.293Z,81.24
2023-02-16T11:47:09.274Z,81.48
2023-02-16T11:48:09.227Z,81.90
2023-02-16T11:49:09.268Z,82.20
2023-02-16T11:50:09.422Z,82.31
2023-02-16T11:51:09.226Z,82.82
2023-02-16T11:52:09.195Z,82.68
2023-02-16T11:53:09.190Z,82.62
2023-02-16T11:54:09.171Z,82.51
2023-02-16T11:55:09.175Z,83.33
2023-02-16T11:56:09.163Z,83.33
2023-02-16T11:57:09.274Z,83.85
2023-02-16T11:58:09.129Z,83.13
2023-02-16T11:59:09.307Z,83.95
2023-02-16T12:00:09.190Z,83.85
2023-02-16T12:01:09.150Z,84.05
2023-02-16T12:02:09.094Z,83.85
2023-02-16T12:03:09.082Z,84.56
2023-02-16T12:04:09.099Z,84.98
2023-02-16T12:05:09.083Z,84.77
2023-02-16T12:06:09.063Z,84.26
2023-02-16T12:07:09.064Z,85.28
2023-02-16T12:08:09.031Z,84.88
2023-02-16T12:09:09.042Z,84.05
2023-02-16T12:10:09.004Z,84.12
2023-02-16T12:11:09.013Z,84.12
2023-02-16T12:12:09.007Z,84.42
2023-02-16T12:13:08.977Z,84.53
2023-02-16T12:14:08.979Z,84.63
2023-02-16T12:15:08.971Z,84.22
2023-02-16T12:16:09.491Z,84.53
2023-02-16T12:17:08.943Z,84.53
2023-02-16T12:18:08.916Z,84.84
2023-02-16T12:19:08.912Z,83.91
2023-02-16T12:20:08.921Z,83.70
2023-02-16T12:21:08.889Z,83.29
2023-02-16T12:22:08.898Z,83.91
2023-02-16T12:23:08.876Z,83.91
2023-02-16T12:24:15.452Z,84.32
2023-02-16T12:25:08.923Z,84.94
2023-02-16T12:26:08.839Z,85.31
2023-02-16T12:27:08.844Z,84.94
2023-02-16T12:28:08.847Z,84.94
2023-02-16T12:29:09.055Z,84.32
2023-02-16T12:30:08.857Z,84.74
2023-02-16T12:31:08.895Z,84.12
2023-02-16T12:32:08.761Z,85.04
2023-02-16T12:33:08.816Z,84.01
2023-02-16T12:34:08.766Z,84.01
2023-02-16T12:35:08.753Z,84.22
2023-02-16T12:36:08.751Z,83.70
2023-02-16T12:37:08.741Z,83.91
2023-02-16T12:38:08.706Z,84.12
2023-02-16T12:39:08.707Z,84.63
2023-02-16T12:40:08.702Z,84.53
2023-02-16T12:41:08.796Z,84.53
2023-02-16T12:42:08.766Z,84.53
2023-02-16T12:43:09.032Z,85.04
2023-02-16T12:44:08.713Z,85.18
2023-02-16T12:45:08.691Z,84.36
2023-02-16T12:46:15.183Z,84.67
2023-02-16T12:47:08.647Z,84.47
2023-02-16T12:48:08.599Z,85.08
2023-02-16T12:49:09.523Z,84.98
2023-02-16T12:50:08.670Z,85.49
2023-02-16T12:51:08.592Z,85.28
2023-02-16T12:52:08.898Z,85.49
2023-02-16T12:53:08.598Z,84.56